Aérodrome :
LOGIN :

S'inscrire | Disclaimer

   EN    FR    IT 

 










Légende :    VFR   VFR Marginal   IFR   IFR Intensif   IFR Très Intensif
Visi : 
Plafond : 
>= 8 km
>= 3000ft
5 à 8 km
1000 à 3000 ft
1500m à 5 km
500 à 1000 ft
800 à 1500m
200 à 500 ft
< 800m
< 200 ft
Symboles :   Orages  Brouillard  Fortes neiges  Fortes précipitations  Vent > 20 kt
SIGMETs :   Divers  Orages  Givrage  Turbulence  Onde Orograph.  Cendres Volcan.






- Altitude de l'aérodrome : 53 ft
- Code IATA : HRT


EGXU - RAF Linton-on-Ouse

DERNIER METAR :
  • 221450Z AUTO 10006KT 9999 // BKN015/// BKN050/// 08/06 Q0996

METARs EXPIRÉS :
  • 221420Z 13007KT 9999 SCT014 BKN050 08/06 Q0996 RMK GRN
  • 221350Z 14010KT 9999 SCT012 BKN050 08/06 Q0996 RMK GRN
  • 221320Z 12010KT 9999 SCT012 BKN048 08/07 Q0995 RMK GRN
  • 221250Z 13011KT 9999 BKN011 BKN048 08/06 Q0996 RMK GRN

TAF TAF EGXU
Valide du 22 à 15h jusqu'au 22 à 18h UTC


221432Z 2215/2218 13010KT 9999 BKN010
TEMPO 2215/2218 FEW010 BKN040



MET'MAP, la Météo Aéronautique d'un coup d'oeil ! - Copyright ORBIFLY Décembre 2007 - Disclaimer

ORBIFLY MET'MAP TEAM :

Programmation & Développement : Alexandra Zaïnal
Conception & Développement : Baudouin d'Aumeries
Co-Programmation & Développement : Marc-Olivier Méhu
Soutien technique & logistique : Manuel Goepfert

Contact : metmap@orbifly.com




SOURCES & CREDITS :

   NOAA